UTC: 03.12.2021 22:41:00
ilmateenistus.ee keskkonnaagentuur.ee
EETN Tallinn
FTEO31 EETN 031700
TAF EETN 031700Z 0318/0418 02010KT 9999 SCT015 BKN025 PROB40 TEMPO
    0318/0321 3000 SHSN BKN008 SCT015CB TEMPO 0321/0410 2000 SHSN BKN005
    BKN012CB TEMPO 0415/0418 2000 SHSN BKN008 SCT015CB=

METAR EETN 032220Z 35004KT 320V030 8000 -SN BKN024 OVC035 M04/M06 Q1000=
Tallinn
EEKA Kärdla
METAR EEKA 032220Z NIL=
Kärdla
EEKE Kuressaare
SPECI EEKE 032235Z AUTO 36001KT 9999NDV R17/P2000N R35/P2000N NSC M12/M12 Q1002=
Kuressaare
EEPU Pärnu
METAR EEPU 032220Z NIL=
Pärnu
EETU Tartu
METAR EETU 032220Z AUTO 28010KT 260V320 9999 OVC029/// M04/M06 Q0999=
Tartu
EEEI Ämari
METAR EEEI 032150Z AUTO VRB02KT 9999 -SN SCT016/// BKN019/// OVC027/// M04/M06 Q1000=
Ämari